Agartala Airport
VEAT : now visible

Airfield :











YOU CAN JOIN US ON...

 
LOGIN :

Register | Disclaimer

   EN    FR    IT 

 









Legend :    VFR   Marginal VFR   IFR   Intensive IFR   Very Intensive IFR
Visi :
Ceiling :
>= 8 km
>= 3000ft
5 to 8 km
1000 to 3000 ft
1500m to 5 km
500 to 1000 ft
800 to 1500m
200 to 500 ft
< 800m
< 200 ft
Symbols :   Thunderstorms  Fog  Heavy snow  Heavy precipitations  Wind > 20 kt






- Airport Elevation : 46 ft
- IATA code : IXA


VEAT - Agartala

CURRENT METAR :
  • 290530Z 20015KT 4000 HZ SCT018 BKN100 34/28 Q1000 NOSIG

EXPIRED METARs :
  • 290500Z 20017KT 4000 HZ SCT018 BKN100 34/28 Q1001 NOSIG
  • 290430Z 19016KT 4000 BR SCT018 BKN100 33/28 Q1001 NOSIG
  • 290400Z 19014KT 4000 BR SCT018 BKN100 33/28 Q1001 NOSIG
  • 290330Z 19014KT 4000 BR FEW010 SCT018 BKN100 33/28 Q1001 NOSIG
  • 290300Z 19012KT 3500 BR FEW010 SCT018 BKN100 32/28 Q1001 NOSIG
  • 290230Z 19012KT 3000 BR FEW010 SCT018 BKN100 31/28 Q1001 NOSIG
  • 290200Z 19010KT 2700 BR FEW010 SCT018 BKN100 31/28 Q1001 BECMG 3000 BR
  • 290130Z 18006KT 2500 BR FEW010 SCT018 BKN100 31/28 Q1001 NOSIG
  • 290100Z 19005KT 2500 BR FEW010 SCT018 BKN100 30/28 Q1001 NOSIG

TAF TAF VEAT
Valid from the 29 at 06:00 until the 29 at 15:00 UTC


290500Z 2906/2915 19012KT 5000 HZ SCT018 BKN100
TEMPO 2908/2910 21010G20KT 2800 -TSRA SCT018 FEW030CB BKN100
VECF FIR / Asia



MET'MAP, your aeronautical weather chart ! - Copyright ORBIFLY December 2007 - Disclaimer

ORBIFLY MET'MAP TEAM :

Programming & Development : Alexandra Zaïnal
Original concept : Baudouin d'Aumeries
Technical & hardware support : Manuel Goepfert
Assistance : Marc-Olivier Méhu




SOURCES & CREDITS :

   NOAA       Earth
Advisory